sensor_id;sensor_type;location;lat;lon;timestamp;pressure;altitude;pressure_sealevel;temperature;humidity
20971;BME280;10644;48.834;10.088;2023-08-06T06:23:08;95792.69;;;18.55;66.02
20971;BME280;10644;48.834;10.088;2023-08-06T06:25:34;95794.50;;;18.55;65.68
20971;BME280;10644;48.834;10.088;2023-08-06T06:27:59;95803.28;;;18.62;65.92
20971;BME280;10644;48.834;10.088;2023-08-06T06:30:24;95792.63;;;18.65;65.57
20971;BME280;10644;48.834;10.088;2023-08-06T06:32:52;95796.00;;;18.65;65.41
20971;BME280;10644;48.834;10.088;2023-08-06T06:35:17;95797.47;;;18.68;65.27
20971;BME280;10644;48.834;10.088;2023-08-06T06:37:43;95796.38;;;18.45;65.01
20971;BME280;10644;48.834;10.088;2023-08-06T06:40:08;95789.75;;;18.50;65.18
20971;BME280;10644;48.834;10.088;2023-08-06T06:42:34;95804.63;;;18.66;65.22
20971;BME280;10644;48.834;10.088;2023-08-06T06:45:00;95802.38;;;18.71;65.04
20971;BME280;10644;48.834;10.088;2023-08-06T06:47:25;95800.63;;;18.79;64.79
20971;BME280;10644;48.834;10.088;2023-08-06T06:49:50;95800.72;;;18.70;65.13
20971;BME280;10644;48.834;10.088;2023-08-06T06:52:16;95799.81;;;18.79;64.63
20971;BME280;10644;48.834;10.088;2023-08-06T06:54:41;95802.31;;;18.63;65.27
20971;BME280;10644;48.834;10.088;2023-08-06T06:57:09;95792.50;;;18.49;65.98
20971;BME280;10644;48.834;10.088;2023-08-06T06:59:34;95790.28;;;18.54;65.53
20971;BME280;10644;48.834;10.088;2023-08-06T07:02:03;95793.72;;;18.62;65.37
20971;BME280;10644;48.834;10.088;2023-08-06T07:04:29;95797.19;;;18.71;65.17
20971;BME280;10644;48.834;10.088;2023-08-06T07:06:54;95788.59;;;18.45;65.38
20971;BME280;10644;48.834;10.088;2023-08-06T07:09:19;95794.38;;;18.39;64.59
20971;BME280;10644;48.834;10.088;2023-08-06T07:11:45;95799.44;;;18.40;65.30
20971;BME280;10644;48.834;10.088;2023-08-06T07:14:10;95792.81;;;18.46;64.95
20971;BME280;10644;48.834;10.088;2023-08-06T07:16:35;95800.44;;;18.47;65.27
20971;BME280;10644;48.834;10.088;2023-08-06T07:19:01;95800.28;;;18.49;65.42
20971;BME280;10644;48.834;10.088;2023-08-06T07:21:26;95788.88;;;18.42;66.36
20971;BME280;10644;48.834;10.088;2023-08-06T07:23:51;95798.91;;;18.37;66.63
20971;BME280;10644;48.834;10.088;2023-08-06T07:26:17;95795.34;;;18.38;66.08
20971;BME280;10644;48.834;10.088;2023-08-06T07:28:43;95799.59;;;18.47;66.07
20971;BME280;10644;48.834;10.088;2023-08-06T07:31:08;95805.13;;;18.44;66.36
20971;BME280;10644;48.834;10.088;2023-08-06T07:33:36;95805.16;;;18.52;65.95
20971;BME280;10644;48.834;10.088;2023-08-06T07:36:12;95806.13;;;18.51;66.18
20971;BME280;10644;48.834;10.088;2023-08-06T07:38:38;95812.81;;;18.36;66.89
20971;BME280;10644;48.834;10.088;2023-08-06T07:41:04;95797.84;;;18.30;67.30
20971;BME280;10644;48.834;10.088;2023-08-06T07:43:30;95811.19;;;18.35;67.34
20971;BME280;10644;48.834;10.088;2023-08-06T07:45:58;95817.78;;;18.29;67.24
20971;BME280;10644;48.834;10.088;2023-08-06T07:48:24;95818.44;;;18.14;68.45
20971;BME280;10644;48.834;10.088;2023-08-06T07:50:56;95814.94;;;18.15;68.63
20971;BME280;10644;48.834;10.088;2023-08-06T07:53:23;95816.84;;;18.13;68.23
20971;BME280;10644;48.834;10.088;2023-08-06T07:55:53;95815.34;;;18.10;67.28
20971;BME280;10644;48.834;10.088;2023-08-06T07:58:19;95799.06;;;18.18;66.69
20971;BME280;10644;48.834;10.088;2023-08-06T08:00:46;95812.25;;;18.07;66.77
20971;BME280;10644;48.834;10.088;2023-08-06T08:03:12;95806.78;;;18.10;67.26
20971;BME280;10644;48.834;10.088;2023-08-06T08:05:42;95814.00;;;18.24;67.54
20971;BME280;10644;48.834;10.088;2023-08-06T08:08:08;95806.09;;;18.08;67.81
20971;BME280;10644;48.834;10.088;2023-08-06T08:10:34;95811.34;;;18.16;67.22
20971;BME280;10644;48.834;10.088;2023-08-06T08:13:05;95810.91;;;18.38;67.04
20971;BME280;10644;48.834;10.088;2023-08-06T08:15:35;95815.88;;;18.31;66.20
20971;BME280;10644;48.834;10.088;2023-08-06T08:18:00;95806.00;;;18.35;66.61
20971;BME280;10644;48.834;10.088;2023-08-06T08:20:26;95817.56;;;18.23;66.36
20971;BME280;10644;48.834;10.088;2023-08-06T08:22:56;95824.78;;;18.11;66.38
20971;BME280;10644;48.834;10.088;2023-08-06T08:25:22;95820.38;;;18.12;66.02
20971;BME280;10644;48.834;10.088;2023-08-06T08:27:47;95816.91;;;18.21;66.05
20971;BME280;10644;48.834;10.088;2023-08-06T08:30:12;95813.94;;;18.16;66.32
20971;BME280;10644;48.834;10.088;2023-08-06T08:32:38;95816.53;;;18.16;66.04
20971;BME280;10644;48.834;10.088;2023-08-06T08:35:03;95811.44;;;18.06;66.74
20971;BME280;10644;48.834;10.088;2023-08-06T08:37:29;95827.28;;;18.21;66.62
20971;BME280;10644;48.834;10.088;2023-08-06T08:39:54;95818.13;;;18.09;66.77
20971;BME280;10644;48.834;10.088;2023-08-06T08:42:22;95815.91;;;17.96;66.44
20971;BME280;10644;48.834;10.088;2023-08-06T08:44:47;95828.72;;;17.98;66.92
20971;BME280;10644;48.834;10.088;2023-08-06T08:47:13;95830.25;;;18.08;66.95
20971;BME280;10644;48.834;10.088;2023-08-06T08:49:42;95814.75;;;18.34;66.26
20971;BME280;10644;48.834;10.088;2023-08-06T08:52:10;95815.78;;;18.41;66.02
20971;BME280;10644;48.834;10.088;2023-08-06T08:54:38;95806.00;;;18.35;66.21
20971;BME280;10644;48.834;10.088;2023-08-06T08:57:04;95806.44;;;18.48;66.63
20971;BME280;10644;48.834;10.088;2023-08-06T08:59:29;95815.38;;;18.53;64.77
20971;BME280;10644;48.834;10.088;2023-08-06T09:01:55;95830.22;;;18.43;64.82
20971;BME280;10644;48.834;10.088;2023-08-06T09:04:21;95808.44;;;18.54;64.62
20971;BME280;10644;48.834;10.088;2023-08-06T09:06:50;95813.63;;;18.54;64.38
20971;BME280;10644;48.834;10.088;2023-08-06T09:09:22;95830.56;;;18.66;63.71
20971;BME280;10644;48.834;10.088;2023-08-06T09:11:51;95814.56;;;18.53;63.71
20971;BME280;10644;48.834;10.088;2023-08-06T09:14:17;95827.19;;;18.73;63.58
20971;BME280;10644;48.834;10.088;2023-08-06T09:16:43;95816.25;;;18.62;63.47
20971;BME280;10644;48.834;10.088;2023-08-06T09:19:09;95825.47;;;18.56;63.82
20971;BME280;10644;48.834;10.088;2023-08-06T09:21:39;95834.78;;;18.67;63.64
20971;BME280;10644;48.834;10.088;2023-08-06T09:24:11;95817.22;;;18.61;64.10
20971;BME280;10644;48.834;10.088;2023-08-06T09:26:41;95826.66;;;18.70;64.14
20971;BME280;10644;48.834;10.088;2023-08-06T09:29:08;95819.06;;;18.68;63.88
20971;BME280;10644;48.834;10.088;2023-08-06T09:34:26;95822.50;;;19.02;63.68
20971;BME280;10644;48.834;10.088;2023-08-06T09:36:53;95825.69;;;19.22;63.05
20971;BME280;10644;48.834;10.088;2023-08-06T09:39:27;95813.69;;;19.29;62.27
20971;BME280;10644;48.834;10.088;2023-08-06T09:42:00;95815.31;;;19.22;63.08
20971;BME280;10644;48.834;10.088;2023-08-06T09:44:30;95815.16;;;18.98;63.29
20971;BME280;10644;48.834;10.088;2023-08-06T09:46:58;95825.94;;;19.11;63.16
20971;BME280;10644;48.834;10.088;2023-08-06T09:51:57;95838.50;;;18.98;62.37
20971;BME280;10644;48.834;10.088;2023-08-06T09:54:26;95834.28;;;18.97;62.80
20971;BME280;10644;48.834;10.088;2023-08-06T09:56:56;95826.22;;;18.74;63.21
20971;BME280;10644;48.834;10.088;2023-08-06T09:59:24;95832.84;;;18.69;63.70
20971;BME280;10644;48.834;10.088;2023-08-06T10:01:51;95813.03;;;18.68;62.82
20971;BME280;10644;48.834;10.088;2023-08-06T10:04:16;95830.44;;;18.75;62.87
20971;BME280;10644;48.834;10.088;2023-08-06T10:06:43;95812.50;;;18.82;63.10
20971;BME280;10644;48.834;10.088;2023-08-06T10:09:11;95814.84;;;19.01;62.99
20971;BME280;10644;48.834;10.088;2023-08-06T10:11:37;95820.25;;;19.07;63.16
20971;BME280;10644;48.834;10.088;2023-08-06T10:14:14;95841.81;;;19.08;62.94
20971;BME280;10644;48.834;10.088;2023-08-06T10:16:41;95829.25;;;18.95;64.29
20971;BME280;10644;48.834;10.088;2023-08-06T10:19:09;95833.94;;;18.92;63.79
20971;BME280;10644;48.834;10.088;2023-08-06T10:21:35;95831.66;;;18.89;63.92
20971;BME280;10644;48.834;10.088;2023-08-06T10:24:00;95821.19;;;19.06;63.94
20971;BME280;10644;48.834;10.088;2023-08-06T10:26:28;95810.22;;;19.20;64.12
20971;BME280;10644;48.834;10.088;2023-08-06T10:28:54;95829.91;;;19.23;63.82
20971;BME280;10644;48.834;10.088;2023-08-06T10:31:20;95820.75;;;19.11;64.25
20971;BME280;10644;48.834;10.088;2023-08-06T10:34:04;95820.25;;;19.07;64.85
20971;BME280;10644;48.834;10.088;2023-08-06T10:36:30;95813.59;;;19.13;63.92
20971;BME280;10644;48.834;10.088;2023-08-06T10:38:57;95805.72;;;19.22;63.05
20971;BME280;10644;48.834;10.088;2023-08-06T10:41:27;95827.00;;;19.26;63.52
20971;BME280;10644;48.834;10.088;2023-08-06T10:44:08;95814.00;;;19.26;62.75
20971;BME280;10644;48.834;10.088;2023-08-06T10:46:34;95816.78;;;19.24;62.74
20971;BME280;10644;48.834;10.088;2023-08-06T10:48:59;95818.16;;;19.11;64.26
20971;BME280;10644;48.834;10.088;2023-08-06T10:51:24;95827.22;;;19.15;65.06
20971;BME280;10644;48.834;10.088;2023-08-06T10:53:50;95837.56;;;18.99;65.94
20971;BME280;10644;48.834;10.088;2023-08-06T10:58:45;95819.06;;;18.68;67.38
20971;BME280;10644;48.834;10.088;2023-08-06T11:01:11;95825.25;;;18.75;68.37
20971;BME280;10644;48.834;10.088;2023-08-06T11:03:38;95827.38;;;18.80;68.46
20971;BME280;10644;48.834;10.088;2023-08-06T11:06:03;95807.47;;;18.55;69.55
20971;BME280;10644;48.834;10.088;2023-08-06T11:08:36;95808.50;;;18.70;69.39
20971;BME280;10644;48.834;10.088;2023-08-06T11:11:12;95821.84;;;18.75;69.01
20971;BME280;10644;48.834;10.088;2023-08-06T11:13:48;95822.25;;;18.88;68.29
20971;BME280;10644;48.834;10.088;2023-08-06T11:16:18;95825.38;;;18.66;69.20
20971;BME280;10644;48.834;10.088;2023-08-06T11:18:44;95828.09;;;18.39;70.03
20971;BME280;10644;48.834;10.088;2023-08-06T11:21:10;95820.53;;;18.28;69.70
20971;BME280;10644;48.834;10.088;2023-08-06T11:23:37;95838.16;;;18.07;71.03
20971;BME280;10644;48.834;10.088;2023-08-06T11:26:05;95835.38;;;18.00;71.16
20971;BME280;10644;48.834;10.088;2023-08-06T11:28:30;95827.38;;;18.11;71.17
20971;BME280;10644;48.834;10.088;2023-08-06T11:30:56;95822.47;;;18.26;70.40
20971;BME280;10644;48.834;10.088;2023-08-06T11:33:28;95831.50;;;18.22;69.94
20971;BME280;10644;48.834;10.088;2023-08-06T11:35:58;95816.91;;;18.21;70.51
20971;BME280;10644;48.834;10.088;2023-08-06T11:38:25;95822.75;;;18.40;70.23
20971;BME280;10644;48.834;10.088;2023-08-06T11:40:52;95821.09;;;18.57;70.46
20971;BME280;10644;48.834;10.088;2023-08-06T11:43:19;95824.41;;;18.67;69.58
20971;BME280;10644;48.834;10.088;2023-08-06T11:45:44;95826.13;;;18.84;69.34
20971;BME280;10644;48.834;10.088;2023-08-06T11:48:09;95815.34;;;18.71;67.84
20971;BME280;10644;48.834;10.088;2023-08-06T11:50:38;95827.91;;;18.58;69.07
20971;BME280;10644;48.834;10.088;2023-08-06T11:53:06;95814.88;;;18.50;68.05
20971;BME280;10644;48.834;10.088;2023-08-06T11:55:32;95822.00;;;18.48;68.40
20971;BME280;10644;48.834;10.088;2023-08-06T11:57:58;95833.56;;;18.36;68.30
20971;BME280;10644;48.834;10.088;2023-08-06T12:00:24;95841.28;;;18.28;70.09
20971;BME280;10644;48.834;10.088;2023-08-06T12:02:51;95827.44;;;18.37;69.79
20971;BME280;10644;48.834;10.088;2023-08-06T12:07:50;95846.03;;;18.32;69.99
20971;BME280;10644;48.834;10.088;2023-08-06T12:10:16;95865.38;;;18.03;70.57
20971;BME280;10644;48.834;10.088;2023-08-06T12:12:45;95870.41;;;17.87;71.11
20971;BME280;10644;48.834;10.088;2023-08-06T12:15:10;95857.66;;;17.76;71.29
20971;BME280;10644;48.834;10.088;2023-08-06T12:17:36;95861.28;;;17.83;71.36
20971;BME280;10644;48.834;10.088;2023-08-06T12:20:06;95873.06;;;17.77;72.31
20971;BME280;10644;48.834;10.088;2023-08-06T12:22:32;95871.94;;;17.97;72.43
20971;BME280;10644;48.834;10.088;2023-08-06T12:25:03;95866.31;;;18.02;72.16
20971;BME280;10644;48.834;10.088;2023-08-06T12:27:29;95876.53;;;18.21;70.70
20971;BME280;10644;48.834;10.088;2023-08-06T12:29:54;95870.72;;;18.36;69.39
20971;BME280;10644;48.834;10.088;2023-08-06T12:32:20;95875.56;;;18.22;69.45
20971;BME280;10644;48.834;10.088;2023-08-06T12:34:45;95864.03;;;17.99;70.07
20971;BME280;10644;48.834;10.088;2023-08-06T12:37:10;95874.88;;;17.85;70.80
20971;BME280;10644;48.834;10.088;2023-08-06T12:39:37;95890.03;;;17.89;69.77
20971;BME280;10644;48.834;10.088;2023-08-06T12:42:03;95882.59;;;17.77;70.98
20971;BME280;10644;48.834;10.088;2023-08-06T12:44:29;95909.13;;;17.61;71.14
20971;BME280;10644;48.834;10.088;2023-08-06T12:46:55;95903.75;;;17.72;70.69
20971;BME280;10644;48.834;10.088;2023-08-06T12:49:20;95887.34;;;17.54;70.77
20971;BME280;10644;48.834;10.088;2023-08-06T12:51:47;95907.47;;;17.70;70.20
20971;BME280;10644;48.834;10.088;2023-08-06T12:54:18;95914.84;;;17.65;69.33
20971;BME280;10644;48.834;10.088;2023-08-06T12:56:46;95925.25;;;17.55;69.29
20971;BME280;10644;48.834;10.088;2023-08-06T12:59:14;95925.84;;;17.49;69.56
20971;BME280;10644;48.834;10.088;2023-08-06T13:01:39;95929.88;;;17.52;70.09
20971;BME280;10644;48.834;10.088;2023-08-06T13:04:07;95919.72;;;17.68;69.48
20971;BME280;10644;48.834;10.088;2023-08-06T13:06:33;95936.59;;;17.45;70.42
20971;BME280;10644;48.834;10.088;2023-08-06T13:09:05;95937.88;;;17.22;70.47
20971;BME280;10644;48.834;10.088;2023-08-06T13:11:32;95928.63;;;17.19;71.09
20971;BME280;10644;48.834;10.088;2023-08-06T13:14:05;95952.00;;;17.37;71.60
20971;BME280;10644;48.834;10.088;2023-08-06T13:16:34;95959.25;;;17.43;71.68
20971;BME280;10644;48.834;10.088;2023-08-06T13:19:00;95953.41;;;17.68;70.14
20971;BME280;10644;48.834;10.088;2023-08-06T13:21:32;95960.97;;;17.79;69.69
20971;BME280;10644;48.834;10.088;2023-08-06T13:23:59;95944.38;;;17.99;69.41
20971;BME280;10644;48.834;10.088;2023-08-06T13:26:24;95954.41;;;17.57;69.01
20971;BME280;10644;48.834;10.088;2023-08-06T13:28:50;95953.19;;;17.52;70.00
20971;BME280;10644;48.834;10.088;2023-08-06T13:31:16;95956.28;;;17.65;69.89
20971;BME280;10644;48.834;10.088;2023-08-06T13:33:43;95954.38;;;17.67;69.50
20971;BME280;10644;48.834;10.088;2023-08-06T13:36:09;95954.75;;;17.72;70.27
20971;BME280;10644;48.834;10.088;2023-08-06T13:38:34;95959.47;;;17.59;70.22
20971;BME280;10644;48.834;10.088;2023-08-06T13:41:01;95970.44;;;17.70;69.96
20971;BME280;10644;48.834;10.088;2023-08-06T13:43:26;95969.06;;;17.76;69.26
20971;BME280;10644;48.834;10.088;2023-08-06T13:45:52;95982.19;;;17.65;69.34
20971;BME280;10644;48.834;10.088;2023-08-06T13:48:18;95974.13;;;17.41;69.53
20971;BME280;10644;48.834;10.088;2023-08-06T13:50:43;95978.16;;;17.53;69.79
20971;BME280;10644;48.834;10.088;2023-08-06T13:53:08;95977.06;;;17.46;69.76
20971;BME280;10644;48.834;10.088;2023-08-06T13:55:34;95972.81;;;17.54;68.74
20971;BME280;10644;48.834;10.088;2023-08-06T13:57:59;95985.00;;;17.44;69.81
20971;BME280;10644;48.834;10.088;2023-08-06T14:00:24;95983.22;;;17.35;69.59
20971;BME280;10644;48.834;10.088;2023-08-06T14:02:50;95985.19;;;17.24;70.12
20971;BME280;10644;48.834;10.088;2023-08-06T14:05:15;95986.66;;;17.17;70.20
20971;BME280;10644;48.834;10.088;2023-08-06T14:07:41;95988.44;;;17.07;70.36
20971;BME280;10644;48.834;10.088;2023-08-06T14:10:07;95985.03;;;17.16;70.85
20971;BME280;10644;48.834;10.088;2023-08-06T14:12:34;95982.69;;;17.32;70.72
20971;BME280;10644;48.834;10.088;2023-08-06T14:14:59;95990.16;;;17.35;70.43
20971;BME280;10644;48.834;10.088;2023-08-06T14:17:25;95981.50;;;17.17;70.55
20971;BME280;10644;48.834;10.088;2023-08-06T14:19:50;95986.81;;;17.25;70.59
20971;BME280;10644;48.834;10.088;2023-08-06T14:22:16;95995.53;;;17.24;70.95
20971;BME280;10644;48.834;10.088;2023-08-06T14:24:41;96006.81;;;17.32;70.10
20971;BME280;10644;48.834;10.088;2023-08-06T14:27:07;95995.91;;;17.29;70.15
20971;BME280;10644;48.834;10.088;2023-08-06T14:29:32;96009.53;;;17.31;70.20
20971;BME280;10644;48.834;10.088;2023-08-06T14:31:58;95995.63;;;17.32;70.69
20971;BME280;10644;48.834;10.088;2023-08-06T14:34:23;95997.25;;;17.33;70.93
20971;BME280;10644;48.834;10.088;2023-08-06T14:36:49;96033.50;;;17.33;71.25
20971;BME280;10644;48.834;10.088;2023-08-06T14:39:16;96027.81;;;17.20;71.21
20971;BME280;10644;48.834;10.088;2023-08-06T14:41:41;96027.69;;;17.12;72.32
20971;BME280;10644;48.834;10.088;2023-08-06T14:44:07;96027.84;;;17.10;72.44
20971;BME280;10644;48.834;10.088;2023-08-06T14:46:33;96021.25;;;17.25;71.94
20971;BME280;10644;48.834;10.088;2023-08-06T14:48:58;96033.97;;;17.19;71.29
20971;BME280;10644;48.834;10.088;2023-08-06T14:51:26;96044.44;;;16.98;71.60
20971;BME280;10644;48.834;10.088;2023-08-06T14:53:51;96046.66;;;16.93;71.94
20971;BME280;10644;48.834;10.088;2023-08-06T14:56:17;96057.41;;;17.08;71.95
20971;BME280;10644;48.834;10.088;2023-08-06T14:58:42;96056.44;;;17.18;70.56
20971;BME280;10644;48.834;10.088;2023-08-06T15:01:08;96057.53;;;17.16;70.32
20971;BME280;10644;48.834;10.088;2023-08-06T15:03:33;96059.72;;;17.01;70.54
20971;BME280;10644;48.834;10.088;2023-08-06T15:05:59;96074.16;;;17.04;70.93
20971;BME280;10644;48.834;10.088;2023-08-06T15:08:24;96066.94;;;16.98;70.33
20971;BME280;10644;48.834;10.088;2023-08-06T15:10:51;96068.31;;;17.02;70.65
20971;BME280;10644;48.834;10.088;2023-08-06T15:13:17;96066.78;;;17.09;70.21
20971;BME280;10644;48.834;10.088;2023-08-06T15:15:42;96055.38;;;17.02;70.27
20971;BME280;10644;48.834;10.088;2023-08-06T15:18:10;96077.16;;;17.09;70.63
20971;BME280;10644;48.834;10.088;2023-08-06T15:20:36;96096.63;;;17.03;70.66
20971;BME280;10644;48.834;10.088;2023-08-06T15:23:01;96113.63;;;17.06;70.76
20971;BME280;10644;48.834;10.088;2023-08-06T15:25:27;96125.22;;;16.92;70.86
20971;BME280;10644;48.834;10.088;2023-08-06T15:27:54;96104.63;;;16.72;71.26
20971;BME280;10644;48.834;10.088;2023-08-06T15:30:19;96103.53;;;16.74;70.98
20971;BME280;10644;48.834;10.088;2023-08-06T15:32:48;96111.72;;;16.70;70.68
20971;BME280;10644;48.834;10.088;2023-08-06T15:35:13;96106.22;;;16.54;71.51
20971;BME280;10644;48.834;10.088;2023-08-06T15:37:39;96100.81;;;16.57;70.96
20971;BME280;10644;48.834;10.088;2023-08-06T15:40:07;96105.28;;;16.55;71.29
20971;BME280;10644;48.834;10.088;2023-08-06T15:42:32;96107.66;;;16.37;71.24
20971;BME280;10644;48.834;10.088;2023-08-06T15:44:58;96107.72;;;16.47;72.13
20971;BME280;10644;48.834;10.088;2023-08-06T15:47:23;96123.81;;;16.60;72.06
20971;BME280;10644;48.834;10.088;2023-08-06T15:49:48;96114.19;;;16.81;71.67
20971;BME280;10644;48.834;10.088;2023-08-06T15:52:14;96106.53;;;16.79;70.67
20971;BME280;10644;48.834;10.088;2023-08-06T15:54:39;96114.06;;;16.92;70.81
20971;BME280;10644;48.834;10.088;2023-08-06T15:57:05;96109.84;;;16.91;71.00
20971;BME280;10644;48.834;10.088;2023-08-06T15:59:32;96110.50;;;17.12;70.05
20971;BME280;10644;48.834;10.088;2023-08-06T16:01:58;96114.59;;;17.14;70.99
20971;BME280;10644;48.834;10.088;2023-08-06T16:04:27;96102.34;;;17.26;70.49
20971;BME280;10644;48.834;10.088;2023-08-06T16:06:52;96113.34;;;17.37;70.10
20971;BME280;10644;48.834;10.088;2023-08-06T16:09:17;96114.09;;;17.39;70.21
20971;BME280;10644;48.834;10.088;2023-08-06T16:11:44;96136.69;;;17.56;70.26
20971;BME280;10644;48.834;10.088;2023-08-06T16:14:12;96109.38;;;17.71;69.03
20971;BME280;10644;48.834;10.088;2023-08-06T16:16:37;96129.28;;;17.71;69.08
20971;BME280;10644;48.834;10.088;2023-08-06T16:19:03;96129.03;;;17.55;69.23
20971;BME280;10644;48.834;10.088;2023-08-06T16:21:29;96123.34;;;17.42;69.02
20971;BME280;10644;48.834;10.088;2023-08-06T16:23:54;96129.75;;;17.19;69.37
20971;BME280;10644;48.834;10.088;2023-08-06T16:26:20;96130.78;;;16.97;70.35
20971;BME280;10644;48.834;10.088;2023-08-06T16:28:46;96120.88;;;16.93;70.16
20971;BME280;10644;48.834;10.088;2023-08-06T16:31:11;96117.19;;;16.95;70.22
20971;BME280;10644;48.834;10.088;2023-08-06T16:33:39;96126.72;;;16.95;69.73
20971;BME280;10644;48.834;10.088;2023-08-06T16:36:04;96142.34;;;16.84;70.13
20971;BME280;10644;48.834;10.088;2023-08-06T16:38:30;96121.53;;;16.85;69.52
20971;BME280;10644;48.834;10.088;2023-08-06T16:40:56;96131.88;;;16.85;69.86
20971;BME280;10644;48.834;10.088;2023-08-06T16:43:25;96117.19;;;16.95;69.55
20971;BME280;10644;48.834;10.088;2023-08-06T16:45:54;96137.63;;;17.08;69.25
20971;BME280;10644;48.834;10.088;2023-08-06T16:48:20;96143.34;;;17.02;69.55
20971;BME280;10644;48.834;10.088;2023-08-06T16:50:54;96144.56;;;16.98;69.65
20971;BME280;10644;48.834;10.088;2023-08-06T16:53:21;96151.47;;;16.78;70.86
20971;BME280;10644;48.834;10.088;2023-08-06T16:55:48;96147.94;;;16.98;70.23
20971;BME280;10644;48.834;10.088;2023-08-06T16:58:13;96154.91;;;16.98;70.08
20971;BME280;10644;48.834;10.088;2023-08-06T17:00:41;96153.28;;;16.97;70.47
20971;BME280;10644;48.834;10.088;2023-08-06T17:03:08;96144.97;;;17.03;69.93
20971;BME280;10644;48.834;10.088;2023-08-06T17:05:33;96160.75;;;16.81;70.80
20971;BME280;10644;48.834;10.088;2023-08-06T17:07:59;96176.53;;;16.78;71.32
20971;BME280;10644;48.834;10.088;2023-08-06T17:10:25;96175.63;;;16.98;71.21
20971;BME280;10644;48.834;10.088;2023-08-06T17:12:50;96169.06;;;16.84;71.26
20971;BME280;10644;48.834;10.088;2023-08-06T17:15:19;96187.47;;;16.91;71.41
20971;BME280;10644;48.834;10.088;2023-08-06T17:17:46;96177.91;;;16.82;71.38
20971;BME280;10644;48.834;10.088;2023-08-06T17:20:12;96189.34;;;16.98;70.95
20971;BME280;10644;48.834;10.088;2023-08-06T17:22:38;96191.31;;;16.57;71.34
20971;BME280;10644;48.834;10.088;2023-08-06T17:25:04;96198.47;;;16.44;72.30
20971;BME280;10644;48.834;10.088;2023-08-06T17:27:29;96197.69;;;16.53;71.95
20971;BME280;10644;48.834;10.088;2023-08-06T17:29:54;96191.78;;;16.71;70.77
20971;BME280;10644;48.834;10.088;2023-08-06T17:32:20;96195.78;;;16.55;70.76
20971;BME280;10644;48.834;10.088;2023-08-06T17:34:46;96184.78;;;16.32;72.38
20971;BME280;10644;48.834;10.088;2023-08-06T17:37:11;96209.88;;;16.41;72.36
20971;BME280;10644;48.834;10.088;2023-08-06T17:39:37;96212.09;;;16.46;71.83
20971;BME280;10644;48.834;10.088;2023-08-06T17:42:02;96213.19;;;16.43;72.36
20971;BME280;10644;48.834;10.088;2023-08-06T17:44:36;96208.72;;;16.55;71.61
20971;BME280;10644;48.834;10.088;2023-08-06T17:47:01;96199.22;;;16.35;72.28
20971;BME280;10644;48.834;10.088;2023-08-06T17:49:27;96214.84;;;16.54;71.50
20971;BME280;10644;48.834;10.088;2023-08-06T17:51:52;96205.06;;;16.67;71.22
20971;BME280;10644;48.834;10.088;2023-08-06T17:54:21;96198.81;;;16.60;70.67
20971;BME280;10644;48.834;10.088;2023-08-06T17:56:47;96202.06;;;16.62;71.20
20971;BME280;10644;48.834;10.088;2023-08-06T17:59:12;96209.81;;;16.32;72.72
20971;BME280;10644;48.834;10.088;2023-08-06T18:01:38;96215.91;;;16.01;73.29
20971;BME280;10644;48.834;10.088;2023-08-06T18:04:03;96208.16;;;15.80;74.28
20971;BME280;10644;48.834;10.088;2023-08-06T18:06:29;96217.19;;;15.86;74.45
